Time;durP1;ratioP1;P1;durP2;ratioP2;P2;SDS_P1;SDS_P2;PMS_P1;PMS_P2;Temp;Humidity;BMP_temperature;BMP_pressure;BME280_temperature;BME280_humidity;BME280_pressure;Samples;Min_cycle;Max_cycle;Signal;HPM_P1;HPM_P2
2024/02/07 00:07:03;;;;;;;;;;;11.70;99.90;;;;;;6713819;88;20059;-76
2024/02/07 00:17:04;;;;;;;;;;;11.70;99.90;;;;;;6716832;88;20074;-76
2024/02/07 00:27:05;;;;;;;;;;;11.60;99.90;;;;;;6722161;88;20058;-76
2024/02/07 00:37:05;;;;;;;;;;;11.50;99.90;;;;;;6725402;88;20056;-76
2024/02/07 00:47:06;;;;;;;;;;;11.40;99.90;;;;;;6721195;88;20050;-76
2024/02/07 00:57:06;;;;;;;;;;;11.30;99.90;;;;;;6721717;88;20047;-76
2024/02/07 01:07:07;;;;;;;;;;;11.30;99.90;;;;;;6718759;88;20079;-76
2024/02/07 01:17:08;;;;;;;;;;;11.10;99.90;;;;;;6717356;88;20058;-76
2024/02/07 01:27:10;;;;;;;;;;;10.90;99.90;;;;;;6717072;88;20063;-75
2024/02/07 01:37:10;;;;;;;;;;;10.70;99.90;;;;;;6717263;88;20134;-76
2024/02/07 01:57:54;;;;;;;;;;;10.70;99.90;;;;;;6719555;88;20586;-78
2024/02/07 02:07:56;;;;;;;;;;;10.70;99.90;;;;;;6719057;88;20072;-78
2024/02/07 02:17:57;;;;;;;;;;;10.70;99.90;;;;;;6718324;88;20109;-79
2024/02/07 02:28:21;;;;;;;;;;;10.90;99.90;;;;;;6701116;88;20073;-78
2024/02/07 02:38:23;;;;;;;;;;;10.90;99.90;;;;;;6699799;88;20075;-78
2024/02/07 02:48:24;;;;;;;;;;;11.10;99.90;;;;;;6701283;88;20504;-79
2024/02/07 02:58:29;;;;;;;;;;;11.00;99.90;;;;;;6718119;88;20054;-78
2024/02/07 03:08:54;;;;;;;;;;;11.00;99.90;;;;;;6718016;88;20196;-79
2024/02/07 03:18:58;;;;;;;;;;;10.90;99.90;;;;;;6716960;88;20076;-78
2024/02/07 03:28:59;;;;;;;;;;;11.00;99.90;;;;;;6727041;88;20051;-79
2024/02/07 03:39:00;;;;;;;;;;;11.00;99.90;;;;;;6719519;88;20070;-78
2024/02/07 03:49:00;;;;;;;;;;;11.10;99.90;;;;;;6716689;88;20503;-78
2024/02/07 03:59:02;;;;;;;;;;;11.00;99.90;;;;;;6719126;88;20083;-78
2024/02/07 04:09:06;;;;;;;;;;;10.90;99.90;;;;;;6720002;88;20111;-79
2024/02/07 05:21:01;;;;;;;;;;;10.30;99.90;;;;;;6717290;88;20054;-78
2024/02/07 05:31:02;;;;;;;;;;;10.10;99.90;;;;;;6717027;88;20148;-77
2024/02/07 05:41:03;;;;;;;;;;;10.20;99.90;;;;;;6733778;88;20097;-77
2024/02/07 05:51:04;;;;;;;;;;;10.20;99.90;;;;;;6734040;88;20080;-78
2024/02/07 06:01:05;;;;;;;;;;;10.20;99.90;;;;;;6755938;87;20058;-78
2024/02/07 06:11:05;;;;;;;;;;;10.10;99.90;;;;;;6749149;88;20057;-78
2024/02/07 06:21:06;;;;;;;;;;;10.10;99.90;;;;;;6672372;88;20504;-78
2024/02/07 06:31:06;;;;;;;;;;;10.00;99.90;;;;;;6711517;88;20065;-77
2024/02/07 06:41:07;;;;;;;;;;;8.70;99.90;;;;;;6739710;88;20080;-78
2024/02/07 06:51:07;;;;;;;;;;;7.80;99.90;;;;;;6716478;88;20084;-76
2024/02/07 07:01:08;;;;;;;;;;;7.30;99.90;;;;;;6711040;88;20189;-77
2024/02/07 07:11:08;;;;;;;;;;;6.90;99.90;;;;;;6694125;88;20097;-78
2024/02/07 07:21:09;;;;;;;;;;;6.70;99.90;;;;;;6726630;88;20050;-77
2024/02/07 07:31:09;;;;;;;;;;;6.70;99.90;;;;;;6721371;88;20481;-76
2024/02/07 07:41:10;;;;;;;;;;;6.50;99.90;;;;;;6731392;77;20064;-72
2024/02/07 07:51:12;;;;;;;;;;;6.40;99.90;;;;;;6720889;88;20079;-72
2024/02/07 08:01:16;;;;;;;;;;;6.40;99.90;;;;;;6732274;88;20182;-72
2024/02/07 08:11:16;;;;;;;;;;;6.20;99.90;;;;;;6731751;88;20070;-73
2024/02/07 08:21:17;;;;;;;;;;;6.20;99.90;;;;;;6732711;88;20573;-72
2024/02/07 08:31:18;;;;;;;;;;;6.20;99.90;;;;;;6733380;88;20071;-72
2024/02/07 08:41:19;;;;;;;;;;;6.20;99.90;;;;;;6746153;87;20072;-72
2024/02/07 08:51:19;;;;;;;;;;;6.20;99.90;;;;;;6731339;88;20062;-73
2024/02/07 09:01:20;;;;;;;;;;;5.90;99.90;;;;;;6730359;88;20184;-73
2024/02/07 09:11:21;;;;;;;;;;;5.90;99.90;;;;;;6731325;88;20065;-74
2024/02/07 09:21:21;;;;;;;;;;;6.00;99.90;;;;;;6733576;88;20070;-73
2024/02/07 09:31:21;;;;;;;;;;;6.20;99.90;;;;;;6730607;88;20070;-72
2024/02/07 09:41:23;;;;;;;;;;;6.30;99.90;;;;;;6735947;87;20112;-73
2024/02/07 09:51:24;;;;;;;;;;;6.30;99.90;;;;;;6733532;88;20088;-73
2024/02/07 10:01:28;;;;;;;;;;;6.30;99.90;;;;;;6729956;88;20087;-74
2024/02/07 10:11:29;;;;;;;;;;;6.30;99.90;;;;;;6731536;88;20055;-74
2024/02/07 10:21:34;;;;;;;;;;;6.40;99.90;;;;;;6727844;88;20071;-74
2024/02/07 10:31:34;;;;;;;;;;;6.30;99.90;;;;;;6730881;88;20077;-73
2024/02/07 10:41:35;;;;;;;;;;;6.10;99.90;;;;;;6733330;87;20480;-73
2024/02/07 10:51:35;;;;;;;;;;;5.90;99.90;;;;;;6733026;88;20055;-74
2024/02/07 11:01:36;;;;;;;;;;;5.90;99.90;;;;;;6728846;88;20524;-74
2024/02/07 11:11:37;;;;;;;;;;;5.80;99.90;;;;;;6734632;88;20077;-74
2024/02/07 11:21:39;;;;;;;;;;;5.60;99.90;;;;;;6730054;88;20546;-73
2024/02/07 11:31:43;;;;;;;;;;;5.50;99.90;;;;;;6730340;88;20058;-73
2024/02/07 11:41:47;;;;;;;;;;;5.50;99.90;;;;;;6733075;88;20130;-73
2024/02/07 11:51:56;;;;;;;;;;;5.30;99.90;;;;;;6735991;88;20059;-73
2024/02/07 12:01:57;;;;;;;;;;;4.90;99.90;;;;;;6729302;88;20173;-73
2024/02/07 12:11:58;;;;;;;;;;;5.10;99.90;;;;;;6731888;88;20528;-73
2024/02/07 12:21:59;;;;;;;;;;;5.20;99.90;;;;;;6733198;88;20139;-73
2024/02/07 12:32:00;;;;;;;;;;;4.90;99.90;;;;;;6731465;88;20092;-74
2024/02/07 12:42:04;;;;;;;;;;;4.80;99.90;;;;;;6733489;88;20548;-73
2024/02/07 12:52:06;;;;;;;;;;;4.70;99.90;;;;;;6733807;88;20074;-73
2024/02/07 13:02:07;;;;;;;;;;;4.60;99.90;;;;;;6733261;88;20062;-74
2024/02/07 13:12:08;;;;;;;;;;;4.70;99.90;;;;;;6734301;88;20258;-73
2024/02/07 13:22:13;;;;;;;;;;;4.70;99.90;;;;;;6732825;88;20594;-73
2024/02/07 13:32:15;;;;;;;;;;;4.80;99.90;;;;;;6735909;88;20155;-73
2024/02/07 13:42:16;;;;;;;;;;;4.80;99.90;;;;;;6738921;77;20051;-78
2024/02/07 13:52:16;;;;;;;;;;;4.70;99.90;;;;;;6721966;88;20058;-79
2024/02/07 14:02:17;;;;;;;;;;;4.60;99.90;;;;;;6739133;88;20065;-78
2024/02/07 14:12:17;;;;;;;;;;;4.40;99.90;;;;;;6738837;88;20246;-78
2024/02/07 14:22:17;;;;;;;;;;;4.60;99.90;;;;;;6738519;88;20105;-79
2024/02/07 14:32:18;;;;;;;;;;;4.60;99.90;;;;;;6738048;88;20542;-79
2024/02/07 14:42:19;;;;;;;;;;;4.70;99.90;;;;;;6737849;88;20079;-78
2024/02/07 14:52:19;;;;;;;;;;;4.60;99.90;;;;;;6737507;88;20054;-78
2024/02/07 15:02:20;;;;;;;;;;;4.70;99.90;;;;;;6737557;88;20049;-79
2024/02/07 15:12:22;;;;;;;;;;;4.80;99.90;;;;;;6737195;88;20061;-77
2024/02/07 15:22:22;;;;;;;;;;;4.70;99.90;;;;;;6732685;88;20090;-77
2024/02/07 15:32:23;;;;;;;;;;;4.50;99.90;;;;;;6739298;88;20057;-78
2024/02/07 15:42:23;;;;;;;;;;;4.60;99.90;;;;;;6740530;88;20081;-77
2024/02/07 15:52:24;;;;;;;;;;;4.60;99.90;;;;;;6745819;88;20147;-77
2024/02/07 16:02:24;;;;;;;;;;;4.40;99.90;;;;;;6741227;88;20100;-78
2024/02/07 16:12:25;;;;;;;;;;;4.30;99.90;;;;;;6740607;88;20061;-77
2024/02/07 16:22:26;;;;;;;;;;;4.10;99.90;;;;;;6739944;88;20100;-77
2024/02/07 16:32:26;;;;;;;;;;;4.00;99.90;;;;;;6740675;88;20163;-78
2024/02/07 16:42:26;;;;;;;;;;;4.00;99.90;;;;;;6723844;88;20216;-78
2024/02/07 16:52:27;;;;;;;;;;;4.20;99.90;;;;;;6723500;88;20084;-76
2024/02/07 17:02:27;;;;;;;;;;;4.20;99.90;;;;;;6730054;88;20533;-78
2024/02/07 17:12:28;;;;;;;;;;;4.20;99.90;;;;;;6734856;88;20059;-80
2024/02/07 17:22:28;;;;;;;;;;;4.30;99.90;;;;;;6736114;88;20066;-77
2024/02/07 17:32:29;;;;;;;;;;;4.40;99.90;;;;;;6739859;88;20099;-76
2024/02/07 17:42:29;;;;;;;;;;;4.50;99.90;;;;;;6744891;88;20038;-78
2024/02/07 17:52:30;;;;;;;;;;;4.50;99.90;;;;;;6746565;88;20112;-76
2024/02/07 18:02:30;;;;;;;;;;;4.40;99.90;;;;;;6736546;88;20066;-78
2024/02/07 18:12:31;;;;;;;;;;;4.30;99.90;;;;;;6736574;88;20065;-77
2024/02/07 18:22:31;;;;;;;;;;;4.20;99.90;;;;;;6744985;88;20059;-78
2024/02/07 18:32:32;;;;;;;;;;;4.10;99.90;;;;;;6743495;88;20651;-79
2024/02/07 18:42:33;;;;;;;;;;;3.90;99.90;;;;;;6746536;88;20074;-78
2024/02/07 18:52:40;;;;;;;;;;;3.60;99.90;;;;;;6737847;88;20065;-78
2024/02/07 19:02:42;;;;;;;;;;;3.60;99.90;;;;;;6736974;88;20074;-76
2024/02/07 19:12:42;;;;;;;;;;;3.60;99.90;;;;;;6740899;88;20115;-79
2024/02/07 19:22:43;;;;;;;;;;;3.70;99.90;;;;;;6748049;88;20634;-76
2024/02/07 19:32:43;;;;;;;;;;;3.70;99.90;;;;;;6738692;88;20851;-76
2024/02/07 19:42:44;;;;;;;;;;;3.60;99.90;;;;;;6734251;88;20532;-78
2024/02/07 19:52:44;;;;;;;;;;;3.60;99.90;;;;;;6738929;77;21682;-74
2024/02/07 20:02:44;;;;;;;;;;;3.60;99.90;;;;;;6709732;88;20078;-74
2024/02/07 20:12:46;;;;;;;;;;;3.60;99.90;;;;;;6693059;88;20143;-75
2024/02/07 20:22:46;;;;;;;;;;;3.60;99.90;;;;;;6697605;88;20291;-75
2024/02/07 20:32:47;;;;;;;;;;;3.60;99.90;;;;;;6678994;88;20061;-75
2024/02/07 20:42:47;;;;;;;;;;;3.60;99.90;;;;;;6684305;87;20656;-76
2024/02/07 20:52:48;;;;;;;;;;;3.70;99.90;;;;;;6676811;88;20648;-76
2024/02/07 21:02:48;;;;;;;;;;;3.60;99.90;;;;;;6697450;88;20568;-75
2024/02/07 21:12:49;;;;;;;;;;;3.70;99.90;;;;;;6676793;88;20061;-75
2024/02/07 21:22:50;;;;;;;;;;;3.70;99.90;;;;;;6684593;88;20045;-76
2024/02/07 21:32:52;;;;;;;;;;;3.80;99.90;;;;;;6671833;88;20053;-73
2024/02/07 21:42:53;;;;;;;;;;;3.90;99.90;;;;;;6667494;87;20124;-74
2024/02/07 21:52:54;;;;;;;;;;;3.80;99.90;;;;;;6674749;88;20069;-73
2024/02/07 22:02:55;;;;;;;;;;;3.80;99.90;;;;;;6665231;88;20547;-74
2024/02/07 22:12:55;;;;;;;;;;;3.60;99.90;;;;;;6665048;88;20093;-76
2024/02/07 22:22:56;;;;;;;;;;;3.60;99.90;;;;;;6658269;88;20093;-75
2024/02/07 22:32:57;;;;;;;;;;;3.70;99.90;;;;;;6665021;88;20178;-75
2024/02/07 22:42:57;;;;;;;;;;;3.80;99.90;;;;;;6671607;88;20052;-75
2024/02/07 22:52:58;;;;;;;;;;;3.80;99.90;;;;;;6670344;88;20064;-75
2024/02/07 23:02:59;;;;;;;;;;;3.90;99.90;;;;;;6674850;88;20122;-75
2024/02/07 23:12:59;;;;;;;;;;;3.90;99.90;;;;;;6667349;88;20164;-76
2024/02/07 23:23:00;;;;;;;;;;;3.90;99.90;;;;;;6664634;88;20084;-75
2024/02/07 23:33:01;;;;;;;;;;;4.10;99.90;;;;;;6673297;87;20125;-74
2024/02/07 23:43:01;;;;;;;;;;;4.10;99.90;;;;;;6671536;88;20053;-74
2024/02/07 23:53:02;;;;;;;;;;;4.20;99.90;;;;;;6673328;87;20766;-74
